sensor_id;sensor_type;location;lat;lon;timestamp;pressure;altitude;pressure_sealevel;temperature;humidity
5138;BME280;53959;53.626;11.410;2023-03-20T00:00:35;101012.97;;;7.70;87.85
5138;BME280;53959;53.626;11.410;2023-03-20T00:03:01;101019.09;;;7.76;88.05
5138;BME280;53959;53.626;11.410;2023-03-20T00:05:28;101024.19;;;7.98;88.07
5138;BME280;53959;53.626;11.410;2023-03-20T00:07:55;101025.06;;;7.97;88.00
5138;BME280;53959;53.626;11.410;2023-03-20T00:10:25;101035.63;;;8.00;88.07
5138;BME280;53959;53.626;11.410;2023-03-20T00:12:53;101026.91;;;7.90;88.32
5138;BME280;53959;53.626;11.410;2023-03-20T00:15:35;101038.38;;;7.91;88.76
5138;BME280;53959;53.626;11.410;2023-03-20T00:18:02;101039.16;;;8.02;88.73
5138;BME280;53959;53.626;11.410;2023-03-20T00:20:27;101041.78;;;8.02;88.81
5138;BME280;53959;53.626;11.410;2023-03-20T00:22:53;101039.03;;;8.13;88.68
5138;BME280;53959;53.626;11.410;2023-03-20T00:25:21;101036.44;;;8.07;88.70
5138;BME280;53959;53.626;11.410;2023-03-20T00:27:48;101039.03;;;8.13;88.79
5138;BME280;53959;53.626;11.410;2023-03-20T00:32:50;101043.34;;;8.21;88.73
5138;BME280;53959;53.626;11.410;2023-03-20T00:35:25;101038.88;;;8.30;89.20
5138;BME280;53959;53.626;11.410;2023-03-20T00:37:52;101033.53;;;8.39;88.69
5138;BME280;53959;53.626;11.410;2023-03-20T00:40:19;101030.03;;;8.32;88.66
5138;BME280;53959;53.626;11.410;2023-03-20T00:42:49;101029.19;;;8.25;89.01
5138;BME280;53959;53.626;11.410;2023-03-20T00:45:17;101032.66;;;8.31;88.73
5138;BME280;53959;53.626;11.410;2023-03-20T00:47:46;101024.69;;;8.38;88.84
5138;BME280;53959;53.626;11.410;2023-03-20T00:50:21;101022.06;;;8.34;88.24
5138;BME280;53959;53.626;11.410;2023-03-20T00:52:48;101029.09;;;8.36;88.07
5138;BME280;53959;53.626;11.410;2023-03-20T00:55:14;101030.81;;;8.42;88.04
5138;BME280;53959;53.626;11.410;2023-03-20T00:57:47;101026.41;;;8.44;87.93
5138;BME280;53959;53.626;11.410;2023-03-20T01:00:39;101022.84;;;8.45;87.59
5138;BME280;53959;53.626;11.410;2023-03-20T01:03:25;101029.03;;;8.42;87.34
5138;BME280;53959;53.626;11.410;2023-03-20T01:05:51;101022.91;;;8.40;87.08
5138;BME280;53959;53.626;11.410;2023-03-20T01:08:22;101031.75;;;8.39;87.05
5138;BME280;53959;53.626;11.410;2023-03-20T01:10:50;101027.25;;;8.47;86.79
5138;BME280;53959;53.626;11.410;2023-03-20T01:13:21;101026.38;;;8.45;86.90
5138;BME280;53959;53.626;11.410;2023-03-20T01:15:48;101029.88;;;8.47;86.60
5138;BME280;53959;53.626;11.410;2023-03-20T01:18:15;101022.81;;;8.48;86.35
5138;BME280;53959;53.626;11.410;2023-03-20T01:20:41;101029.03;;;8.44;86.29
5138;BME280;53959;53.626;11.410;2023-03-20T01:23:07;101027.31;;;8.38;86.32
5138;BME280;53959;53.626;11.410;2023-03-20T01:25:32;101039.59;;;8.45;86.14
5138;BME280;53959;53.626;11.410;2023-03-20T01:27:59;101041.44;;;8.40;86.17
5138;BME280;53959;53.626;11.410;2023-03-20T01:30:30;101042.41;;;8.28;85.95
5138;BME280;53959;53.626;11.410;2023-03-20T01:32:56;101033.53;;;8.31;85.79
5138;BME280;53959;53.626;11.410;2023-03-20T01:35:25;101042.38;;;8.30;85.77
5138;BME280;53959;53.626;11.410;2023-03-20T01:37:52;101045.03;;;8.30;85.88
5138;BME280;53959;53.626;11.410;2023-03-20T01:42:43;101048.53;;;8.31;84.72
5138;BME280;53959;53.626;11.410;2023-03-20T01:45:15;101050.25;;;8.35;85.18
5138;BME280;53959;53.626;11.410;2023-03-20T01:47:43;101044.09;;;8.34;84.83
5138;BME280;53959;53.626;11.410;2023-03-20T01:50:31;101047.66;;;8.33;84.70
5138;BME280;53959;53.626;11.410;2023-03-20T01:53:07;101050.41;;;8.24;85.00
5138;BME280;53959;53.626;11.410;2023-03-20T01:55:38;101045.94;;;8.29;85.03
5138;BME280;53959;53.626;11.410;2023-03-20T01:58:11;101048.53;;;8.35;84.93
5138;BME280;53959;53.626;11.410;2023-03-20T02:00:38;101054.78;;;8.25;85.21
5138;BME280;53959;53.626;11.410;2023-03-20T02:03:08;101046.84;;;8.25;84.98
5138;BME280;53959;53.626;11.410;2023-03-20T02:06:07;101049.50;;;8.25;84.84
5138;BME280;53959;53.626;11.410;2023-03-20T02:08:52;101047.78;;;8.21;85.35
5138;BME280;53959;53.626;11.410;2023-03-20T02:11:20;101049.38;;;8.34;85.31
5138;BME280;53959;53.626;11.410;2023-03-20T02:13:49;101053.88;;;8.29;84.99
5138;BME280;53959;53.626;11.410;2023-03-20T02:16:16;101065.34;;;8.28;85.11
5138;BME280;53959;53.626;11.410;2023-03-20T02:18:58;101056.63;;;8.20;85.44
5138;BME280;53959;53.626;11.410;2023-03-20T02:27:11;101055.66;;;8.25;85.09
5138;BME280;53959;53.626;11.410;2023-03-20T02:33:22;101047.69;;;8.28;85.00
5138;BME280;53959;53.626;11.410;2023-03-20T02:36:13;101046.75;;;8.34;85.02
5138;BME280;53959;53.626;11.410;2023-03-20T02:38:53;101044.97;;;8.39;84.77
5138;BME280;53959;53.626;11.410;2023-03-20T02:41:29;101058.25;;;8.32;84.43
5138;BME280;53959;53.626;11.410;2023-03-20T02:44:17;101044.13;;;8.33;84.85
5138;BME280;53959;53.626;11.410;2023-03-20T02:46:53;101038.88;;;8.28;84.86
5138;BME280;53959;53.626;11.410;2023-03-20T02:55:08;101033.50;;;8.34;84.41
5138;BME280;53959;53.626;11.410;2023-03-20T02:58:01;101029.09;;;8.38;84.44
5138;BME280;53959;53.626;11.410;2023-03-20T03:00:36;101030.91;;;8.33;84.28
5138;BME280;53959;53.626;11.410;2023-03-20T03:03:28;101027.22;;;8.46;83.95
5138;BME280;53959;53.626;11.410;2023-03-20T03:06:11;101035.22;;;8.44;84.14
5138;BME280;53959;53.626;11.410;2023-03-20T03:08:43;101026.44;;;8.39;83.91
5138;BME280;53959;53.626;11.410;2023-03-20T03:11:12;101028.22;;;8.34;84.13
5138;BME280;53959;53.626;11.410;2023-03-20T03:13:41;101028.16;;;8.42;84.22
5138;BME280;53959;53.626;11.410;2023-03-20T03:16:13;101027.28;;;8.43;84.32
5138;BME280;53959;53.626;11.410;2023-03-20T03:18:41;101024.69;;;8.35;84.38
5138;BME280;53959;53.626;11.410;2023-03-20T03:21:08;101022.09;;;8.32;84.37
5138;BME280;53959;53.626;11.410;2023-03-20T03:23:46;101022.03;;;8.37;84.44
5138;BME280;53959;53.626;11.410;2023-03-20T03:26:18;101026.47;;;8.33;84.60
5138;BME280;53959;53.626;11.410;2023-03-20T03:28:55;101026.44;;;8.36;84.61
5138;BME280;53959;53.626;11.410;2023-03-20T03:31:23;101020.28;;;8.36;84.32
5138;BME280;53959;53.626;11.410;2023-03-20T03:33:51;101035.31;;;8.31;84.72
5138;BME280;53959;53.626;11.410;2023-03-20T03:36:31;101026.56;;;8.25;84.87
5138;BME280;53959;53.626;11.410;2023-03-20T03:39:09;101021.38;;;8.16;85.37
5138;BME280;53959;53.626;11.410;2023-03-20T03:41:43;101023.16;;;8.14;85.42
5138;BME280;53959;53.626;11.410;2023-03-20T03:44:27;101028.47;;;8.08;85.66
5138;BME280;53959;53.626;11.410;2023-03-20T03:47:01;101021.38;;;8.15;85.93
5138;BME280;53959;53.626;11.410;2023-03-20T03:49:33;101019.56;;;8.20;85.84
5138;BME280;53959;53.626;11.410;2023-03-20T03:52:03;101023.00;;;8.26;85.80
5138;BME280;53959;53.626;11.410;2023-03-20T03:54:52;101024.03;;;8.12;86.12
5138;BME280;53959;53.626;11.410;2023-03-20T03:57:46;101021.41;;;8.13;85.92
5138;BME280;53959;53.626;11.410;2023-03-20T04:00:18;101017.81;;;8.16;86.04
5138;BME280;53959;53.626;11.410;2023-03-20T04:02:47;101011.59;;;8.24;86.09
5138;BME280;53959;53.626;11.410;2023-03-20T04:05:14;101015.16;;;8.19;85.91
5138;BME280;53959;53.626;11.410;2023-03-20T04:07:46;101010.78;;;8.15;85.60
5138;BME280;53959;53.626;11.410;2023-03-20T04:10:13;101010.72;;;8.19;85.69
5138;BME280;53959;53.626;11.410;2023-03-20T04:12:40;101004.59;;;8.17;86.03
5138;BME280;53959;53.626;11.410;2023-03-20T04:15:11;101005.53;;;8.12;85.76
5138;BME280;53959;53.626;11.410;2023-03-20T04:17:37;101008.16;;;8.13;86.08
5138;BME280;53959;53.626;11.410;2023-03-20T04:20:03;101007.22;;;8.19;86.06
5138;BME280;53959;53.626;11.410;2023-03-20T04:22:29;101006.28;;;8.23;86.12
5138;BME280;53959;53.626;11.410;2023-03-20T04:25:03;101013.38;;;8.21;85.89
5138;BME280;53959;53.626;11.410;2023-03-20T04:27:29;101016.03;;;8.21;86.00
5138;BME280;53959;53.626;11.410;2023-03-20T04:29:55;101021.38;;;8.15;86.33
5138;BME280;53959;53.626;11.410;2023-03-20T04:32:50;101009.88;;;8.16;86.33
5138;BME280;53959;53.626;11.410;2023-03-20T04:35:32;101014.34;;;8.14;86.13
5138;BME280;53959;53.626;11.410;2023-03-20T04:38:02;101013.44;;;8.16;86.09
5138;BME280;53959;53.626;11.410;2023-03-20T04:40:31;101012.53;;;8.17;85.63
5138;BME280;53959;53.626;11.410;2023-03-20T04:42:56;101007.22;;;8.19;85.86
5138;BME280;53959;53.626;11.410;2023-03-20T04:45:22;101015.22;;;8.14;85.56
5138;BME280;53959;53.626;11.410;2023-03-20T04:47:47;101010.75;;;8.18;85.48
5138;BME280;53959;53.626;11.410;2023-03-20T04:50:14;101009.88;;;8.16;85.49
5138;BME280;53959;53.626;11.410;2023-03-20T04:52:39;101010.72;;;8.19;85.65
5138;BME280;53959;53.626;11.410;2023-03-20T04:55:05;101006.31;;;8.21;85.79
5138;BME280;53959;53.626;11.410;2023-03-20T04:57:31;101012.44;;;8.25;85.74
5138;BME280;53959;53.626;11.410;2023-03-20T04:59:57;101008.88;;;8.29;85.66
5138;BME280;53959;53.626;11.410;2023-03-20T05:02:22;101004.50;;;8.25;85.80
5138;BME280;53959;53.626;11.410;2023-03-20T05:04:48;101007.13;;;8.26;86.01
5138;BME280;53959;53.626;11.410;2023-03-20T05:07:13;101008.94;;;8.23;85.94
5138;BME280;53959;53.626;11.410;2023-03-20T05:09:57;101011.56;;;8.23;85.95
5138;BME280;53959;53.626;11.410;2023-03-20T05:12:24;101007.25;;;8.17;86.13
5138;BME280;53959;53.626;11.410;2023-03-20T05:14:57;101015.09;;;8.23;85.86
5138;BME280;53959;53.626;11.410;2023-03-20T05:17:41;101010.66;;;8.28;86.52
5138;BME280;53959;53.626;11.410;2023-03-20T05:20:17;101013.28;;;8.32;86.27
5138;BME280;53959;53.626;11.410;2023-03-20T05:23:04;101008.81;;;8.35;85.69
5138;BME280;53959;53.626;11.410;2023-03-20T05:26:09;101006.34;;;8.20;85.17
5138;BME280;53959;53.626;11.410;2023-03-20T05:28:55;101009.78;;;8.28;85.04
5138;BME280;53959;53.626;11.410;2023-03-20T05:31:46;101023.97;;;8.19;85.06
5138;BME280;53959;53.626;11.410;2023-03-20T05:34:26;101022.41;;;8.01;85.08
5138;BME280;53959;53.626;11.410;2023-03-20T05:37:02;101018.81;;;8.07;84.91
5138;BME280;53959;53.626;11.410;2023-03-20T05:39:43;101015.38;;;7.97;84.88
5138;BME280;53959;53.626;11.410;2023-03-20T05:42:25;101027.78;;;7.91;85.19
5138;BME280;53959;53.626;11.410;2023-03-20T05:45:26;101030.34;;;7.97;84.98
5138;BME280;53959;53.626;11.410;2023-03-20T05:47:51;101032.25;;;7.84;85.22
5138;BME280;53959;53.626;11.410;2023-03-20T05:50:55;101026.09;;;7.81;85.26
5138;BME280;53959;53.626;11.410;2023-03-20T05:53:46;101026.09;;;7.81;85.50
5138;BME280;53959;53.626;11.410;2023-03-20T05:56:28;101027.81;;;7.85;85.66
5138;BME280;53959;53.626;11.410;2023-03-20T05:59:16;101031.38;;;7.81;85.83
5138;BME280;53959;53.626;11.410;2023-03-20T06:02:08;101029.66;;;7.76;86.02
5138;BME280;53959;53.626;11.410;2023-03-20T06:04:37;101041.06;;;7.85;86.06
5138;BME280;53959;53.626;11.410;2023-03-20T06:07:25;101045.50;;;7.83;85.79
5138;BME280;53959;53.626;11.410;2023-03-20T06:09:57;101045.44;;;7.86;85.33
5138;BME280;53959;53.626;11.410;2023-03-20T06:12:24;101033.06;;;7.89;85.16
5138;BME280;53959;53.626;11.410;2023-03-20T06:14:49;101033.06;;;7.94;85.40
5138;BME280;53959;53.626;11.410;2023-03-20T06:17:15;101041.94;;;7.87;85.18
5138;BME280;53959;53.626;11.410;2023-03-20T06:19:45;101033.91;;;7.97;85.06
5138;BME280;53959;53.626;11.410;2023-03-20T06:22:10;101048.91;;;7.95;85.43
5138;BME280;53959;53.626;11.410;2023-03-20T06:24:36;101048.78;;;8.08;85.12
5138;BME280;53959;53.626;11.410;2023-03-20T06:27:02;101044.34;;;8.10;85.00
5138;BME280;53959;53.626;11.410;2023-03-20T06:29:28;101044.44;;;8.02;85.14
5138;BME280;53959;53.626;11.410;2023-03-20T06:32:02;101054.09;;;8.04;84.69
5138;BME280;53959;53.626;11.410;2023-03-20T06:34:28;101051.53;;;7.98;84.44
5138;BME280;53959;53.626;11.410;2023-03-20T06:36:55;101054.22;;;7.89;84.80
5138;BME280;53959;53.626;11.410;2023-03-20T06:39:22;101043.66;;;7.91;84.65
5138;BME280;53959;53.626;11.410;2023-03-20T06:41:47;101045.38;;;7.95;84.90
5138;BME280;53959;53.626;11.410;2023-03-20T06:44:13;101053.38;;;7.87;85.15
5138;BME280;53959;53.626;11.410;2023-03-20T06:46:57;101051.63;;;7.85;85.39
5138;BME280;53959;53.626;11.410;2023-03-20T06:49:23;101053.34;;;7.90;85.64
5138;BME280;53959;53.626;11.410;2023-03-20T06:51:48;101051.63;;;7.85;85.41
5138;BME280;53959;53.626;11.410;2023-03-20T06:54:21;101055.09;;;7.91;85.38
5138;BME280;53959;53.626;11.410;2023-03-20T06:56:47;101047.22;;;7.87;85.46
5138;BME280;53959;53.626;11.410;2023-03-20T06:59:12;101047.16;;;7.90;85.35
5138;BME280;53959;53.626;11.410;2023-03-20T07:01:38;101047.91;;;8.09;85.40
5138;BME280;53959;53.626;11.410;2023-03-20T07:04:05;101042.59;;;8.07;85.16
5138;BME280;53959;53.626;11.410;2023-03-20T07:06:36;101049.78;;;7.94;85.22
5138;BME280;53959;53.626;11.410;2023-03-20T07:09:02;101055.94;;;7.96;84.99
5138;BME280;53959;53.626;11.410;2023-03-20T07:11:29;101065.56;;;8.07;85.19
5138;BME280;53959;53.626;11.410;2023-03-20T07:13:55;101056.66;;;8.12;84.70
5138;BME280;53959;53.626;11.410;2023-03-20T07:16:32;101057.50;;;8.19;84.80
5138;BME280;53959;53.626;11.410;2023-03-20T07:18:57;101058.50;;;8.09;84.61
5138;BME280;53959;53.626;11.410;2023-03-20T07:21:23;101061.13;;;8.09;84.40
5138;BME280;53959;53.626;11.410;2023-03-20T07:23:49;101058.63;;;7.92;84.56
5138;BME280;53959;53.626;11.410;2023-03-20T07:26:15;101060.31;;;7.99;84.21
5138;BME280;53959;53.626;11.410;2023-03-20T07:28:41;101064.59;;;8.12;84.80
5138;BME280;53959;53.626;11.410;2023-03-20T07:31:21;101065.59;;;8.00;84.46
5138;BME280;53959;53.626;11.410;2023-03-20T07:33:52;101070.84;;;8.07;84.87
5138;BME280;53959;53.626;11.410;2023-03-20T07:36:17;101075.28;;;8.00;84.52
5138;BME280;53959;53.626;11.410;2023-03-20T07:38:43;101078.84;;;7.99;84.73
5138;BME280;53959;53.626;11.410;2023-03-20T07:41:09;101084.25;;;7.87;84.79
5138;BME280;53959;53.626;11.410;2023-03-20T07:43:38;101085.16;;;7.78;84.91
5138;BME280;53959;53.626;11.410;2023-03-20T07:46:18;101077.22;;;7.83;84.37
5138;BME280;53959;53.626;11.410;2023-03-20T07:48:44;101086.03;;;7.83;84.13
5138;BME280;53959;53.626;11.410;2023-03-20T07:51:09;101096.66;;;7.78;83.56
5138;BME280;53959;53.626;11.410;2023-03-20T07:53:35;101090.50;;;7.70;83.36
5138;BME280;53959;53.626;11.410;2023-03-20T07:56:03;101102.00;;;7.66;84.19
5138;BME280;53959;53.626;11.410;2023-03-20T07:58:30;101098.44;;;7.70;84.05
5138;BME280;53959;53.626;11.410;2023-03-20T08:00:56;101102.00;;;7.66;84.10
5138;BME280;53959;53.626;11.410;2023-03-20T08:03:22;101100.28;;;7.59;83.87
5138;BME280;53959;53.626;11.410;2023-03-20T08:05:48;101097.59;;;7.71;83.77
5138;BME280;53959;53.626;11.410;2023-03-20T08:08:13;101096.75;;;7.62;83.24
5138;BME280;53959;53.626;11.410;2023-03-20T08:10:38;101101.03;;;7.78;83.10
5138;BME280;53959;53.626;11.410;2023-03-20T08:13:03;101097.41;;;7.94;82.71
5138;BME280;53959;53.626;11.410;2023-03-20T08:15:29;101097.34;;;8.00;82.58
5138;BME280;53959;53.626;11.410;2023-03-20T08:17:55;101106.09;;;8.09;82.14
5138;BME280;53959;53.626;11.410;2023-03-20T08:20:23;101100.88;;;7.99;81.66
5138;BME280;53959;53.626;11.410;2023-03-20T08:22:48;101105.31;;;7.97;82.07
5138;BME280;53959;53.626;11.410;2023-03-20T08:25:14;101116.84;;;7.90;81.99
5138;BME280;53959;53.626;11.410;2023-03-20T08:27:39;101107.91;;;8.03;82.66
5138;BME280;53959;53.626;11.410;2023-03-20T08:30:05;101109.88;;;7.77;82.00
5138;BME280;53959;53.626;11.410;2023-03-20T08:32:31;101113.34;;;7.84;82.00
5138;BME280;53959;53.626;11.410;2023-03-20T08:34:56;101100.22;;;7.71;82.12
5138;BME280;53959;53.626;11.410;2023-03-20T08:37:21;101109.84;;;7.83;82.67
5138;BME280;53959;53.626;11.410;2023-03-20T08:39:47;101110.69;;;7.82;82.44
5138;BME280;53959;53.626;11.410;2023-03-20T08:42:12;101115.16;;;7.77;82.57
5138;BME280;53959;53.626;11.410;2023-03-20T08:44:38;101118.75;;;7.67;83.29
5138;BME280;53959;53.626;11.410;2023-03-20T08:47:03;101111.72;;;7.66;83.33
5138;BME280;53959;53.626;11.410;2023-03-20T08:49:32;101114.41;;;7.57;83.43
5138;BME280;53959;53.626;11.410;2023-03-20T08:51:57;101116.16;;;7.64;83.52
5138;BME280;53959;53.626;11.410;2023-03-20T08:54:23;101117.84;;;7.69;83.67
5138;BME280;53959;53.626;11.410;2023-03-20T08:56:49;101124.81;;;7.84;83.59
5138;BME280;53959;53.626;11.410;2023-03-20T08:59:15;101119.47;;;7.89;83.36
5138;BME280;53959;53.626;11.410;2023-03-20T09:01:40;101115.13;;;7.80;83.32
5138;BME280;53959;53.626;11.410;2023-03-20T09:04:05;101124.69;;;7.99;82.83
5138;BME280;53959;53.626;11.410;2023-03-20T09:06:31;101130.03;;;7.95;82.67
5138;BME280;53959;53.626;11.410;2023-03-20T09:08:59;101116.69;;;8.04;83.06
5138;BME280;53959;53.626;11.410;2023-03-20T09:11:25;101123.84;;;7.94;82.93
5138;BME280;53959;53.626;11.410;2023-03-20T09:13:50;101127.41;;;7.90;83.24
5138;BME280;53959;53.626;11.410;2023-03-20T09:16:15;101130.88;;;7.98;83.59
5138;BME280;53959;53.626;11.410;2023-03-20T09:18:41;101128.19;;;8.00;83.20
5138;BME280;53959;53.626;11.410;2023-03-20T09:21:06;101134.34;;;8.03;83.52
5138;BME280;53959;53.626;11.410;2023-03-20T09:23:32;101127.44;;;7.84;83.51
5138;BME280;53959;53.626;11.410;2023-03-20T09:25:58;101132.63;;;7.99;83.47
5138;BME280;53959;53.626;11.410;2023-03-20T09:28:23;101137.94;;;7.96;83.27
5138;BME280;53959;53.626;11.410;2023-03-20T09:30:49;101128.09;;;8.14;83.31
5138;BME280;53959;53.626;11.410;2023-03-20T09:33:18;101129.91;;;8.09;82.80
5138;BME280;53959;53.626;11.410;2023-03-20T09:35:44;101129.78;;;8.22;82.96
5138;BME280;53959;53.626;11.410;2023-03-20T09:38:09;101127.06;;;8.30;82.30
5138;BME280;53959;53.626;11.410;2023-03-20T09:40:56;101129.59;;;8.45;82.20
5138;BME280;53959;53.626;11.410;2023-03-20T09:46:48;101127.63;;;8.67;80.75
5138;BME280;53959;53.626;11.410;2023-03-20T09:54:44;101144.50;;;8.59;80.61
5138;BME280;53959;53.626;11.410;2023-03-20T10:00:20;101149.94;;;8.42;82.41
5138;BME280;53959;53.626;11.410;2023-03-20T10:02:51;101152.81;;;8.08;83.04
5138;BME280;53959;53.626;11.410;2023-03-20T10:07:55;101153.59;;;8.24;83.16
5138;BME280;53959;53.626;11.410;2023-03-20T10:13:36;101155.22;;;8.46;82.49
5138;BME280;53959;53.626;11.410;2023-03-20T10:16:24;101148.19;;;8.35;81.51
5138;BME280;53959;53.626;11.410;2023-03-20T10:19:01;101152.53;;;8.48;81.13
5138;BME280;53959;53.626;11.410;2023-03-20T10:21:41;101141.13;;;8.38;80.42
5138;BME280;53959;53.626;11.410;2023-03-20T10:24:15;101143.75;;;8.43;80.04
5138;BME280;53959;53.626;11.410;2023-03-20T10:26:46;101148.22;;;8.38;80.02
5138;BME280;53959;53.626;11.410;2023-03-20T10:29:28;101144.63;;;8.46;79.48
5138;BME280;53959;53.626;11.410;2023-03-20T10:32:04;101139.19;;;8.59;79.33
5138;BME280;53959;53.626;11.410;2023-03-20T10:35:04;101134.06;;;8.43;79.39
5138;BME280;53959;53.626;11.410;2023-03-20T10:40:32;101127.94;;;8.31;81.84
5138;BME280;53959;53.626;11.410;2023-03-20T10:45:45;101128.94;;;8.19;82.54
5138;BME280;53959;53.626;11.410;2023-03-20T10:48:25;101139.44;;;8.28;82.95
5138;BME280;53959;53.626;11.410;2023-03-20T10:50:55;101135.94;;;8.24;83.04
5138;BME280;53959;53.626;11.410;2023-03-20T10:53:27;101122.63;;;8.35;83.15
5138;BME280;53959;53.626;11.410;2023-03-20T10:55:56;101127.91;;;8.38;82.51
5138;BME280;53959;53.626;11.410;2023-03-20T10:58:26;101120.84;;;8.40;82.22
5138;BME280;53959;53.626;11.410;2023-03-20T11:00:54;101123.44;;;8.46;82.74
5138;BME280;53959;53.626;11.410;2023-03-20T11:03:30;101138.53;;;8.31;82.32
5138;BME280;53959;53.626;11.410;2023-03-20T11:06:02;101128.03;;;8.21;82.64
5138;BME280;53959;53.626;11.410;2023-03-20T11:08:34;101130.72;;;8.20;83.14
5138;BME280;53959;53.626;11.410;2023-03-20T11:11:02;101126.28;;;8.19;82.98
5138;BME280;53959;53.626;11.410;2023-03-20T11:13:43;101137.00;;;8.05;83.56
5138;BME280;53959;53.626;11.410;2023-03-20T11:18:34;101138.84;;;7.94;83.80
5138;BME280;53959;53.626;11.410;2023-03-20T11:21:01;101133.56;;;7.89;84.05
5138;BME280;53959;53.626;11.410;2023-03-20T11:23:32;101133.50;;;8.01;83.40
5138;BME280;53959;53.626;11.410;2023-03-20T11:26:03;101133.25;;;8.32;82.78
5138;BME280;53959;53.626;11.410;2023-03-20T11:28:38;101116.31;;;8.51;82.15
5138;BME280;53959;53.626;11.410;2023-03-20T11:33:49;101114.41;;;8.66;80.45
5138;BME280;53959;53.626;11.410;2023-03-20T11:36:28;101127.63;;;8.67;80.56
5138;BME280;53959;53.626;11.410;2023-03-20T11:39:03;101125.09;;;8.54;80.20
5138;BME280;53959;53.626;11.410;2023-03-20T11:41:30;101123.16;;;8.71;80.12
5138;BME280;53959;53.626;11.410;2023-03-20T11:43:55;101122.41;;;8.60;80.02
5138;BME280;53959;53.626;11.410;2023-03-20T11:46:22;101121.38;;;8.74;79.89
5138;BME280;53959;53.626;11.410;2023-03-20T11:49:03;101112.69;;;8.60;78.79
5138;BME280;53959;53.626;11.410;2023-03-20T11:51:29;101110.66;;;8.85;78.87
5138;BME280;53959;53.626;11.410;2023-03-20T11:54:04;101117.28;;;9.20;77.91
5138;BME280;53959;53.626;11.410;2023-03-20T11:56:32;101113.63;;;9.30;77.28
5138;BME280;53959;53.626;11.410;2023-03-20T12:01:49;101100.59;;;9.13;76.46
5138;BME280;53959;53.626;11.410;2023-03-20T12:04:26;101101.56;;;9.06;77.06
5138;BME280;53959;53.626;11.410;2023-03-20T12:06:55;101094.63;;;8.94;77.04
5138;BME280;53959;53.626;11.410;2023-03-20T12:11:58;101089.53;;;8.79;76.96
5138;BME280;53959;53.626;11.410;2023-03-20T12:14:44;101092.06;;;8.90;77.10
5138;BME280;53959;53.626;11.410;2023-03-20T12:17:29;101085.97;;;8.82;77.21
5138;BME280;53959;53.626;11.410;2023-03-20T12:20:01;101078.09;;;8.75;77.34
5138;BME280;53959;53.626;11.410;2023-03-20T12:22:32;101079.16;;;8.59;76.77
5138;BME280;53959;53.626;11.410;2023-03-20T12:27:45;101086.06;;;8.74;77.45
5138;BME280;53959;53.626;11.410;2023-03-20T12:30:21;101080.81;;;8.71;77.29
5138;BME280;53959;53.626;11.410;2023-03-20T12:33:11;101092.28;;;8.70;77.83
5138;BME280;53959;53.626;11.410;2023-03-20T12:35:43;101079.09;;;8.67;77.92
5138;BME280;53959;53.626;11.410;2023-03-20T12:38:29;101084.41;;;8.64;78.01
5138;BME280;53959;53.626;11.410;2023-03-20T12:41:10;101090.69;;;8.54;78.09
5138;BME280;53959;53.626;11.410;2023-03-20T12:44:03;101086.22;;;8.60;78.26
5138;BME280;53959;53.626;11.410;2023-03-20T12:49:44;101083.81;;;8.39;77.60
5138;BME280;53959;53.626;11.410;2023-03-20T12:52:18;101091.81;;;8.28;77.96
5138;BME280;53959;53.626;11.410;2023-03-20T12:58:06;101076.81;;;8.27;78.14
5138;BME280;53959;53.626;11.410;2023-03-20T13:00:42;101069.66;;;8.43;78.32
5138;BME280;53959;53.626;11.410;2023-03-20T13:12:14;101066.75;;;8.66;77.21
5138;BME280;53959;53.626;11.410;2023-03-20T13:15:04;101069.13;;;8.87;77.43
5138;BME280;53959;53.626;11.410;2023-03-20T13:18:36;101060.59;;;8.61;77.13
5138;BME280;53959;53.626;11.410;2023-03-20T13:20:55;101060.44;;;8.78;76.85
5138;BME280;53959;53.626;11.410;2023-03-20T13:28:33;101056.91;;;8.77;76.65
5138;BME280;53959;53.626;11.410;2023-03-20T13:31:16;101057.88;;;8.70;77.16
5138;BME280;53959;53.626;11.410;2023-03-20T13:34:08;101059.81;;;8.54;77.81
5138;BME280;53959;53.626;11.410;2023-03-20T13:37:00;101053.47;;;8.67;78.43
5138;BME280;53959;53.626;11.410;2023-03-20T13:39:37;101049.28;;;8.48;78.51
5138;BME280;53959;53.626;11.410;2023-03-20T13:42:11;101058.97;;;8.49;79.14
5138;BME280;53959;53.626;11.410;2023-03-20T13:44:40;101053.75;;;8.43;79.60
5138;BME280;53959;53.626;11.410;2023-03-20T13:47:11;101054.63;;;8.42;79.70
5138;BME280;53959;53.626;11.410;2023-03-20T13:49:45;101051.09;;;8.44;79.98
5138;BME280;53959;53.626;11.410;2023-03-20T13:52:16;101054.63;;;8.46;79.81
5138;BME280;53959;53.626;11.410;2023-03-20T13:55:03;101053.78;;;8.38;79.26
5138;BME280;53959;53.626;11.410;2023-03-20T13:58:04;101046.72;;;8.40;78.99
5138;BME280;53959;53.626;11.410;2023-03-20T14:00:58;101044.03;;;8.46;78.62
5138;BME280;53959;53.626;11.410;2023-03-20T14:03:34;101047.47;;;8.55;78.22
5138;BME280;53959;53.626;11.410;2023-03-20T14:06:59;101050.16;;;8.50;78.20
5138;BME280;53959;53.626;11.410;2023-03-20T14:09:00;101050.19;;;8.47;77.42
5138;BME280;53959;53.626;11.410;2023-03-20T14:11:34;101055.47;;;8.50;77.02
5138;BME280;53959;53.626;11.410;2023-03-20T14:14:13;101048.31;;;8.58;77.39
5138;BME280;53959;53.626;11.410;2023-03-20T14:16:42;101049.38;;;8.40;77.06
5138;BME280;53959;53.626;11.410;2023-03-20T14:19:16;101054.53;;;8.54;77.29
5138;BME280;53959;53.626;11.410;2023-03-20T14:21:49;101046.75;;;8.39;76.70
5138;BME280;53959;53.626;11.410;2023-03-20T14:24:17;101044.97;;;8.39;76.96
5138;BME280;53959;53.626;11.410;2023-03-20T14:26:48;101039.47;;;8.56;76.43
5138;BME280;53959;53.626;11.410;2023-03-20T14:31:40;101044.06;;;8.42;76.38
5138;BME280;53959;53.626;11.410;2023-03-20T14:34:16;101036.88;;;8.55;76.19
5138;BME280;53959;53.626;11.410;2023-03-20T14:39:42;101033.34;;;8.52;75.65
5138;BME280;53959;53.626;11.410;2023-03-20T14:53:01;101039.94;;;8.90;74.69
5138;BME280;53959;53.626;11.410;2023-03-20T14:55:32;101037.31;;;8.89;74.04
5138;BME280;53959;53.626;11.410;2023-03-20T14:58:26;101035.59;;;8.86;73.37
5138;BME280;53959;53.626;11.410;2023-03-20T15:00:50;101038.91;;;9.02;73.04